Webcam Flughafen St.Gallen-Altenrhein

Live-Bilder und Zeitraffer LSZR / ACH.

 

Live aus Altenrhein
LIVE
LSZR 060620Z VRB01KT 9999 FEW010 16/14 Q1020 NOSIG RMK C
Zeitraffer heute
2020-08-06 00:14:08
LSZR 052150Z AUTO 21002KT CAVOK 15/14 Q1019